createdAt,value
2022-08-23T00:02:07.851Z,102118.80
2022-08-23T00:04:56.891Z,102118.60
2022-08-23T00:07:35.169Z,102120.60
2022-08-23T00:10:09.070Z,102121.40
2022-08-23T00:12:37.562Z,102117.80
2022-08-23T00:15:07.742Z,102121.80
2022-08-23T00:17:37.797Z,102128.00
2022-08-23T00:20:09.677Z,102133.80
2022-08-23T00:22:40.123Z,102132.60
2022-08-23T00:25:11.392Z,102135.40
2022-08-23T00:27:40.102Z,102135.00
2022-08-23T00:30:12.452Z,102142.20
2022-08-23T00:32:42.153Z,102146.40
2022-08-23T00:35:22.219Z,102146.40
2022-08-23T00:38:32.402Z,102143.60
2022-08-23T00:40:52.751Z,102144.40
2022-08-23T00:43:50.869Z,102146.20
2022-08-23T00:47:06.805Z,102150.00
2022-08-23T00:49:38.741Z,102151.40
2022-08-23T00:52:31.691Z,102149.20
2022-08-23T00:55:00.800Z,102145.40
2022-08-23T00:57:30.734Z,102149.60
2022-08-23T00:59:58.647Z,102150.80
2022-08-23T01:02:27.166Z,102155.00
2022-08-23T01:05:01.242Z,102154.20
2022-08-23T01:07:48.908Z,102156.80
2022-08-23T01:10:27.800Z,102157.20
2022-08-23T01:13:12.780Z,102157.00
2022-08-23T01:16:01.159Z,102160.20
2022-08-23T01:18:31.737Z,102163.00
2022-08-23T01:21:13.390Z,102166.40
2022-08-23T01:23:49.977Z,102163.60
2022-08-23T01:26:22.069Z,102162.20
2022-08-23T01:28:53.028Z,102160.00
2022-08-23T01:31:23.790Z,102162.80
2022-08-23T01:34:01.165Z,102162.40
2022-08-23T01:36:31.004Z,102157.00
2022-08-23T01:38:58.978Z,102160.20
2022-08-23T01:41:26.712Z,102164.80
2022-08-23T01:43:54.401Z,102162.60
2022-08-23T01:46:26.227Z,102162.40
2022-08-23T01:48:58.531Z,102163.00
2022-08-23T01:51:26.445Z,102160.40
2022-08-23T01:53:54.148Z,102157.60
2022-08-23T01:56:38.322Z,102158.40
2022-08-23T01:59:10.058Z,102162.40
2022-08-23T02:01:38.196Z,102161.80
2022-08-23T02:04:06.767Z,102169.80
2022-08-23T02:06:35.347Z,102170.80
2022-08-23T02:09:05.853Z,102172.20
2022-08-23T02:11:47.217Z,102173.80
2022-08-23T02:14:20.464Z,102173.00
2022-08-23T02:17:02.735Z,102172.80
2022-08-23T02:19:35.157Z,102172.80
2022-08-23T02:22:05.026Z,102170.60
2022-08-23T02:24:34.461Z,102168.80
2022-08-23T02:27:05.439Z,102169.20
2022-08-23T02:29:38.361Z,102169.60
2022-08-23T02:32:09.860Z,102173.20
2022-08-23T02:34:38.229Z,102177.80
2022-08-23T02:37:09.322Z,102175.20
2022-08-23T02:39:38.950Z,102172.60
2022-08-23T02:42:11.805Z,102177.40
2022-08-23T02:44:40.044Z,102177.80
2022-08-23T02:47:09.225Z,102174.80
2022-08-23T02:49:37.956Z,102175.20
2022-08-23T02:52:07.254Z,102177.80
2022-08-23T02:54:36.483Z,102177.20
2022-08-23T02:57:05.423Z,102182.00
2022-08-23T02:59:33.955Z,102183.60
2022-08-23T03:02:02.186Z,102177.40
2022-08-23T03:04:30.206Z,102181.00
2022-08-23T03:06:57.983Z,102185.60
2022-08-23T03:09:25.743Z,102183.60
2022-08-23T03:11:53.486Z,102183.80
2022-08-23T03:14:22.237Z,102184.60
2022-08-23T03:16:50.365Z,102185.20
2022-08-23T03:19:18.063Z,102183.60
2022-08-23T03:21:46.659Z,102187.00
2022-08-23T03:24:15.184Z,102185.60
2022-08-23T03:26:45.834Z,102182.00
2022-08-23T03:29:15.074Z,102182.40
2022-08-23T03:31:43.193Z,102182.60
2022-08-23T03:34:12.291Z,102188.60
2022-08-23T03:36:40.242Z,102191.20
2022-08-23T03:39:08.504Z,102191.40
2022-08-23T03:41:36.385Z,102192.60
2022-08-23T03:44:05.496Z,102194.80
2022-08-23T03:46:34.141Z,102195.60
2022-08-23T03:49:04.272Z,102196.80
2022-08-23T03:51:34.888Z,102200.60
2022-08-23T03:54:03.294Z,102204.00
2022-08-23T03:56:36.037Z,102202.60
2022-08-23T03:59:11.666Z,102204.20
2022-08-23T04:01:39.492Z,102208.80
2022-08-23T04:04:07.566Z,102214.20
2022-08-23T04:06:35.588Z,102213.00
2022-08-23T04:09:04.456Z,102217.60
2022-08-23T04:11:33.559Z,102217.20
2022-08-23T04:14:01.354Z,102221.80
2022-08-23T04:16:30.367Z,102224.80
2022-08-23T04:18:58.095Z,102226.40
2022-08-23T04:21:25.925Z,102230.40
2022-08-23T04:23:54.180Z,102226.80
2022-08-23T04:26:22.102Z,102234.40
2022-08-23T04:28:50.606Z,102233.00
2022-08-23T04:31:22.389Z,102233.20
2022-08-23T04:33:52.408Z,102230.40
2022-08-23T04:36:23.379Z,102233.80
2022-08-23T04:38:51.611Z,102236.80
2022-08-23T04:41:38.493Z,102236.00
2022-08-23T04:44:06.855Z,102235.40
2022-08-23T04:46:34.858Z,102242.60
2022-08-23T04:49:03.862Z,102244.80
2022-08-23T04:51:32.063Z,102243.40
2022-08-23T04:53:59.829Z,102246.80
2022-08-23T04:56:28.596Z,102248.60
2022-08-23T04:58:56.688Z,102247.00
2022-08-23T05:01:25.627Z,102247.00
2022-08-23T05:03:55.367Z,102246.00
2022-08-23T05:06:25.054Z,102246.60
2022-08-23T05:08:53.649Z,102245.00
2022-08-23T05:11:21.992Z,102244.20
2022-08-23T05:13:50.337Z,102245.80
2022-08-23T05:16:18.489Z,102242.80
2022-08-23T05:18:46.947Z,102244.40
2022-08-23T05:21:19.087Z,102243.00
2022-08-23T05:23:51.027Z,102241.60
2022-08-23T05:26:22.974Z,102242.20
2022-08-23T05:28:51.156Z,102242.20
2022-08-23T05:31:26.729Z,102239.00
2022-08-23T05:33:55.247Z,102235.20
2022-08-23T05:36:23.358Z,102234.80
2022-08-23T05:38:53.512Z,102233.00
2022-08-23T05:41:21.804Z,102233.00
2022-08-23T05:43:55.103Z,102231.80
2022-08-23T05:46:26.565Z,102234.80
2022-08-23T05:48:57.094Z,102240.80
2022-08-23T05:51:34.731Z,102242.80
2022-08-23T05:54:07.745Z,102247.20
2022-08-23T05:56:41.536Z,102248.20
2022-08-23T05:59:16.011Z,102249.40
2022-08-23T06:01:44.587Z,102243.00
2022-08-23T06:04:13.292Z,102244.60
2022-08-23T06:06:43.253Z,102245.00
2022-08-23T06:09:15.881Z,102246.60
2022-08-23T06:11:47.213Z,102240.60
2022-08-23T06:14:16.480Z,102238.60
2022-08-23T06:16:51.610Z,102240.20
2022-08-23T06:19:22.573Z,102246.40
2022-08-23T06:21:52.113Z,102244.40
2022-08-23T06:24:20.608Z,102248.20
2022-08-23T06:26:49.107Z,102250.00
2022-08-23T06:29:20.068Z,102248.80
2022-08-23T06:31:52.887Z,102248.20
2022-08-23T06:34:24.470Z,102251.80
2022-08-23T06:37:00.270Z,102256.80
2022-08-23T06:39:37.350Z,102259.40
2022-08-23T06:42:37.900Z,102257.00
2022-08-23T06:45:06.312Z,102262.60
2022-08-23T06:47:34.837Z,102262.60
2022-08-23T06:50:04.730Z,102264.40
2022-08-23T06:52:32.552Z,102261.20
2022-08-23T06:55:02.414Z,102261.40
2022-08-23T06:57:30.341Z,102261.80
2022-08-23T06:59:58.265Z,102272.00
2022-08-23T07:02:26.374Z,102268.60
2022-08-23T07:04:55.870Z,102269.80
2022-08-23T07:07:24.352Z,102272.60
2022-08-23T07:10:07.871Z,102272.40
2022-08-23T07:12:42.129Z,102272.00
2022-08-23T07:15:13.029Z,102272.20
2022-08-23T07:17:40.817Z,102278.60
2022-08-23T07:20:09.017Z,102277.80
2022-08-23T07:22:36.764Z,102279.00
2022-08-23T07:25:05.365Z,102281.20
2022-08-23T07:27:33.197Z,102281.20
2022-08-23T07:30:03.437Z,102282.80
2022-08-23T07:32:31.533Z,102280.20
2022-08-23T07:34:59.249Z,102281.80
2022-08-23T07:37:28.689Z,102283.40
2022-08-23T07:39:58.598Z,102283.60
2022-08-23T07:42:26.857Z,102287.80
2022-08-23T07:44:54.638Z,102289.80
2022-08-23T07:47:22.468Z,102285.80
2022-08-23T07:49:51.123Z,102279.60
2022-08-23T07:52:19.028Z,102278.80
2022-08-23T07:54:49.458Z,102284.60
2022-08-23T07:57:18.404Z,102283.80
2022-08-23T07:59:46.482Z,102286.80
2022-08-23T08:02:14.802Z,102284.20
2022-08-23T08:04:42.703Z,102285.60
2022-08-23T08:07:19.380Z,102288.00
2022-08-23T08:09:49.490Z,102284.00
2022-08-23T08:12:18.000Z,102286.20
2022-08-23T08:14:48.463Z,102287.60
2022-08-23T08:17:18.607Z,102289.40
2022-08-23T08:19:47.026Z,102289.40
2022-08-23T08:22:15.135Z,102285.20
2022-08-23T08:24:43.971Z,102290.20
2022-08-23T08:27:11.791Z,102293.40
2022-08-23T08:29:39.764Z,102292.00
2022-08-23T08:32:09.070Z,102292.60
2022-08-23T08:34:42.709Z,102294.40
2022-08-23T08:37:10.939Z,102293.80
2022-08-23T08:39:45.720Z,102291.20
2022-08-23T08:42:58.753Z,102300.40
2022-08-23T08:45:38.503Z,102290.60
2022-08-23T08:48:13.860Z,102288.00
2022-08-23T08:51:05.917Z,102288.40
2022-08-23T08:53:45.650Z,102290.60
2022-08-23T08:56:32.553Z,102290.60
2022-08-23T08:59:09.608Z,102287.00
2022-08-23T09:01:38.832Z,102288.80
2022-08-23T09:04:08.104Z,102290.00
2022-08-23T09:07:25.922Z,102290.60
2022-08-23T09:10:34.274Z,102295.00
2022-08-23T09:13:45.969Z,102304.60
2022-08-23T09:16:29.912Z,102299.80
2022-08-23T09:19:01.552Z,102297.00
2022-08-23T09:21:45.845Z,102289.60
2022-08-23T09:24:14.866Z,102288.80
2022-08-23T09:26:43.811Z,102287.20
2022-08-23T09:29:29.256Z,102292.60
2022-08-23T09:32:07.371Z,102291.00
2022-08-23T09:34:43.620Z,102299.20
2022-08-23T09:37:17.166Z,102299.60
2022-08-23T09:39:51.545Z,102304.00
2022-08-23T09:42:38.727Z,102303.80
2022-08-23T09:45:28.898Z,102306.40
2022-08-23T09:47:58.625Z,102307.60
2022-08-23T09:50:29.893Z,102310.80
2022-08-23T09:53:07.402Z,102312.00
2022-08-23T09:55:43.223Z,102311.80
2022-08-23T09:58:41.543Z,102309.80
2022-08-23T10:01:38.738Z,102315.00
2022-08-23T10:04:25.320Z,102319.40
2022-08-23T10:06:53.611Z,102318.60
2022-08-23T10:09:30.790Z,102323.80
2022-08-23T10:12:02.865Z,102326.80
2022-08-23T10:14:33.942Z,102330.60
2022-08-23T10:17:12.480Z,102330.80
2022-08-23T10:20:18.720Z,102328.40
2022-08-23T10:23:04.866Z,102333.40
2022-08-23T10:25:42.495Z,102337.20
2022-08-23T10:29:06.769Z,102337.80
2022-08-23T10:32:05.213Z,102339.20
2022-08-23T10:34:50.528Z,102343.00
2022-08-23T10:37:52.511Z,102345.60
2022-08-23T10:40:32.324Z,102346.80
2022-08-23T10:43:46.307Z,102344.80
2022-08-23T10:46:14.227Z,102343.80
2022-08-23T10:49:01.714Z,102344.80
2022-08-23T10:51:45.209Z,102340.20
2022-08-23T10:54:34.619Z,102348.80
2022-08-23T10:57:05.540Z,102346.00
2022-08-23T10:59:37.263Z,102349.00
2022-08-23T11:02:20.228Z,102350.40
2022-08-23T11:05:01.619Z,102350.00
2022-08-23T11:07:37.465Z,102352.20
2022-08-23T11:10:33.299Z,102355.20
2022-08-23T11:13:25.417Z,102356.80
2022-08-23T11:16:15.498Z,102361.20
2022-08-23T11:18:49.956Z,102356.80
2022-08-23T11:21:20.438Z,102359.80
2022-08-23T11:23:58.363Z,102361.80
2022-08-23T11:26:26.072Z,102367.40
2022-08-23T11:29:21.271Z,102368.60
2022-08-23T11:32:19.014Z,102375.60
2022-08-23T11:35:04.024Z,102380.40
2022-08-23T11:37:56.219Z,102381.40
2022-08-23T11:40:58.214Z,102390.00
2022-08-23T11:43:35.149Z,102390.00
2022-08-23T11:46:28.058Z,102387.20
2022-08-23T11:49:25.966Z,102384.80
2022-08-23T11:52:08.315Z,102385.60
2022-08-23T11:55:28.801Z,102388.00
2022-08-23T11:58:30.510Z,102388.60
2022-08-23T12:01:14.261Z,102393.40
2022-08-23T12:03:51.623Z,102390.00
2022-08-23T12:06:19.328Z,102394.40
2022-08-23T12:09:01.738Z,102389.60
2022-08-23T12:11:55.805Z,102393.40
2022-08-23T12:14:32.852Z,102386.20
2022-08-23T12:17:12.983Z,102394.00
2022-08-23T12:19:51.201Z,102386.20
2022-08-23T12:22:25.381Z,102386.40
2022-08-23T12:24:59.683Z,102376.60
2022-08-23T12:28:11.948Z,102374.00
2022-08-23T12:31:00.342Z,102364.40
2022-08-23T12:34:22.573Z,102362.20
2022-08-23T12:37:05.392Z,102362.60
2022-08-23T12:39:47.072Z,102363.80
2022-08-23T12:42:20.191Z,102366.20
2022-08-23T12:45:07.163Z,102366.60
2022-08-23T12:47:38.592Z,102366.20
2022-08-23T12:50:33.096Z,102362.40
2022-08-23T12:53:08.918Z,102354.80
2022-08-23T12:55:42.874Z,102353.20
2022-08-23T12:58:12.302Z,102351.60
2022-08-23T13:00:55.005Z,102358.40
2022-08-23T13:03:36.502Z,102356.00
2022-08-23T13:06:11.182Z,102361.80
2022-08-23T13:08:47.162Z,102364.20
2022-08-23T13:11:21.833Z,102365.20
2022-08-23T13:13:50.108Z,102370.20
2022-08-23T13:16:36.162Z,102361.00
2022-08-23T13:19:28.105Z,102358.60
2022-08-23T13:22:23.499Z,102357.40
2022-08-23T13:25:29.648Z,102355.00
2022-08-23T13:28:31.219Z,102352.20
2022-08-23T13:31:02.842Z,102346.60
2022-08-23T13:33:31.368Z,102349.60
2022-08-23T13:36:21.873Z,102351.60
2022-08-23T13:38:50.359Z,102351.20
2022-08-23T13:41:45.305Z,102352.40
2022-08-23T13:44:18.398Z,102357.00
2022-08-23T13:46:48.698Z,102356.00
2022-08-23T13:49:24.213Z,102358.60
2022-08-23T13:52:24.631Z,102363.80
2022-08-23T13:54:50.937Z,102354.20
2022-08-23T13:57:22.339Z,102349.00
2022-08-23T13:59:55.234Z,102349.60
2022-08-23T14:02:24.779Z,102350.80
2022-08-23T14:04:52.642Z,102347.40
2022-08-23T14:07:21.332Z,102343.00
2022-08-23T14:09:54.814Z,102338.80
2022-08-23T14:12:28.752Z,102341.00
2022-08-23T14:14:59.452Z,102341.80
2022-08-23T14:17:30.986Z,102345.20
2022-08-23T14:22:47.866Z,102351.60
2022-08-23T14:25:16.233Z,102355.40
2022-08-23T14:27:47.803Z,102351.20
2022-08-23T14:30:32.096Z,102356.60
2022-08-23T14:33:01.481Z,102358.80
2022-08-23T14:35:29.920Z,102352.20
2022-08-23T14:38:03.497Z,102353.80
2022-08-23T14:40:32.875Z,102355.20
2022-08-23T14:43:01.421Z,102353.60
2022-08-23T14:45:29.582Z,102351.60
2022-08-23T14:47:57.622Z,102349.60
2022-08-23T14:50:25.969Z,102344.40
2022-08-23T14:52:57.276Z,102340.60
2022-08-23T14:55:25.426Z,102338.60
2022-08-23T14:57:55.080Z,102339.20
2022-08-23T15:00:23.903Z,102341.20
2022-08-23T15:02:52.314Z,102342.00
2022-08-23T15:05:20.359Z,102348.40
2022-08-23T15:07:48.282Z,102346.60
2022-08-23T15:13:28.283Z,102344.60
2022-08-23T15:15:54.084Z,102348.20
2022-08-23T15:18:24.128Z,102347.40
2022-08-23T15:20:52.608Z,102344.00
2022-08-23T15:23:21.167Z,102340.40
2022-08-23T15:25:49.905Z,102336.60
2022-08-23T15:28:21.791Z,102337.40
2022-08-23T15:30:51.679Z,102333.40
2022-08-23T15:33:24.728Z,102333.40
2022-08-23T15:36:01.936Z,102331.60
2022-08-23T15:38:32.256Z,102332.60
2022-08-23T15:41:00.830Z,102325.60
2022-08-23T15:43:34.974Z,102322.00
2022-08-23T15:46:07.851Z,102324.20
2022-08-23T15:48:50.533Z,102325.40
2022-08-23T15:51:19.646Z,102323.00
2022-08-23T15:53:48.436Z,102326.20
2022-08-23T15:56:23.856Z,102324.20
2022-08-23T15:58:54.638Z,102324.60
2022-08-23T16:01:25.060Z,102329.80
2022-08-23T16:03:53.489Z,102330.60
2022-08-23T16:06:22.001Z,102326.80
2022-08-23T16:08:53.299Z,102323.40
2022-08-23T16:11:22.031Z,102328.60
2022-08-23T16:13:51.635Z,102324.00
2022-08-23T16:16:32.117Z,102325.40
2022-08-23T16:19:00.601Z,102327.20
2022-08-23T16:21:34.750Z,102320.80
2022-08-23T16:24:02.985Z,102319.20
2022-08-23T16:26:37.013Z,102322.40
2022-08-23T16:29:10.179Z,102323.80
2022-08-23T16:31:39.995Z,102322.40
2022-08-23T16:34:12.046Z,102320.20
2022-08-23T16:36:44.815Z,102320.80
2022-08-23T16:39:16.361Z,102317.80
2022-08-23T16:41:48.074Z,102312.00
2022-08-23T16:44:18.540Z,102311.60
2022-08-23T16:46:46.329Z,102306.80
2022-08-23T16:49:17.128Z,102309.40
2022-08-23T16:51:46.555Z,102309.00
2022-08-23T16:54:15.118Z,102311.80
2022-08-23T16:56:43.381Z,102313.40
2022-08-23T16:59:13.138Z,102316.80
2022-08-23T17:01:56.172Z,102314.00
2022-08-23T17:04:25.573Z,102310.40
2022-08-23T17:07:01.015Z,102316.20
2022-08-23T17:09:29.481Z,102318.60
2022-08-23T17:11:58.605Z,102319.60
2022-08-23T17:14:26.952Z,102325.00
2022-08-23T17:16:55.376Z,102329.00
2022-08-23T17:19:23.899Z,102336.20
2022-08-23T17:21:54.692Z,102339.60
2022-08-23T17:24:25.456Z,102333.40
2022-08-23T17:26:55.920Z,102336.20
2022-08-23T17:29:23.797Z,102346.00
2022-08-23T17:31:53.509Z,102350.20
2022-08-23T17:34:21.350Z,102342.60
2022-08-23T17:36:54.825Z,102346.40
2022-08-23T17:39:29.142Z,102350.60
2022-08-23T17:41:58.758Z,102353.00
2022-08-23T17:44:26.558Z,102350.20
2022-08-23T17:46:54.334Z,102350.20
2022-08-23T17:49:22.229Z,102346.80
2022-08-23T17:51:49.990Z,102354.00
2022-08-23T17:54:18.604Z,102352.40
2022-08-23T17:56:50.086Z,102348.40
2022-08-23T17:59:20.767Z,102348.60
2022-08-23T18:01:48.613Z,102352.60
2022-08-23T18:04:17.081Z,102357.20
2022-08-23T18:06:45.721Z,102365.40
2022-08-23T18:09:16.284Z,102369.40
2022-08-23T18:11:44.440Z,102371.20
2022-08-23T18:14:12.577Z,102367.60
2022-08-23T18:16:44.065Z,102368.80
2022-08-23T18:19:13.561Z,102364.40
2022-08-23T18:21:45.883Z,102370.80
2022-08-23T18:24:14.086Z,102369.00
2022-08-23T18:27:03.109Z,102366.20
2022-08-23T18:29:36.048Z,102359.20
2022-08-23T18:32:08.977Z,102358.20
2022-08-23T18:34:39.954Z,102362.40
2022-08-23T18:37:07.811Z,102362.40
2022-08-23T18:39:35.638Z,102359.60
2022-08-23T18:42:06.075Z,102359.20
2022-08-23T18:44:33.805Z,102358.20
2022-08-23T18:47:03.252Z,102358.20
2022-08-23T18:49:33.810Z,102361.60
2022-08-23T18:52:02.813Z,102360.00
2022-08-23T18:54:33.836Z,102358.40
2022-08-23T18:57:03.678Z,102359.40
2022-08-23T18:59:31.947Z,102359.40
2022-08-23T19:02:00.137Z,102357.00
2022-08-23T19:04:29.232Z,102362.00
2022-08-23T19:06:57.358Z,102359.80
2022-08-23T19:09:25.171Z,102361.60
2022-08-23T19:11:52.930Z,102367.20
2022-08-23T19:14:21.008Z,102374.80
2022-08-23T19:16:49.238Z,102376.60
2022-08-23T19:19:19.993Z,102378.20
2022-08-23T19:21:49.340Z,102381.60
2022-08-23T19:24:17.450Z,102386.80
2022-08-23T19:26:47.653Z,102388.80
2022-08-23T19:29:18.476Z,102394.80
2022-08-23T19:31:48.346Z,102394.80
2022-08-23T19:34:20.494Z,102400.80
2022-08-23T19:36:56.814Z,102403.40
2022-08-23T19:39:27.964Z,102408.00
2022-08-23T19:41:55.735Z,102407.20
2022-08-23T19:44:24.301Z,102411.20
2022-08-23T19:46:52.480Z,102417.40
2022-08-23T19:49:20.183Z,102418.40
2022-08-23T19:51:47.894Z,102419.60
2022-08-23T19:54:17.345Z,102424.80
2022-08-23T19:56:51.778Z,102419.20
2022-08-23T19:59:27.511Z,102422.00
2022-08-23T20:01:58.078Z,102419.40
2022-08-23T20:04:29.856Z,102418.40
2022-08-23T20:06:58.939Z,102421.20
2022-08-23T20:09:29.216Z,102422.40
2022-08-23T20:11:59.048Z,102418.80
2022-08-23T20:14:31.650Z,102416.40
2022-08-23T20:17:04.459Z,102412.00
2022-08-23T20:19:32.240Z,102408.00
2022-08-23T20:22:20.030Z,102407.60
2022-08-23T20:24:51.959Z,102404.00
2022-08-23T20:27:29.013Z,102404.60
2022-08-23T20:30:01.519Z,102405.00
2022-08-23T20:32:30.021Z,102407.60
2022-08-23T20:35:00.080Z,102415.20
2022-08-23T20:37:28.366Z,102421.20
2022-08-23T20:39:56.793Z,102424.40
2022-08-23T20:42:25.201Z,102424.00
2022-08-23T20:44:53.035Z,102425.00
2022-08-23T20:47:20.918Z,102423.60
2022-08-23T20:49:48.849Z,102429.20
2022-08-23T20:52:18.312Z,102428.60
2022-08-23T20:54:46.201Z,102428.80
2022-08-23T20:57:14.131Z,102437.00
2022-08-23T20:59:44.733Z,102442.60
2022-08-23T21:02:13.475Z,102444.60
2022-08-23T21:04:41.466Z,102444.20
2022-08-23T21:07:09.616Z,102448.00
2022-08-23T21:09:37.432Z,102450.60
2022-08-23T21:12:06.393Z,102450.80
2022-08-23T21:14:34.322Z,102451.00
2022-08-23T21:17:02.238Z,102451.00
2022-08-23T21:19:30.160Z,102450.00
2022-08-23T21:21:58.607Z,102450.20
2022-08-23T21:24:26.709Z,102447.20
2022-08-23T21:26:54.483Z,102441.40
2022-08-23T21:29:22.232Z,102436.00
2022-08-23T21:31:50.010Z,102436.60
2022-08-23T21:34:18.403Z,102438.00
2022-08-23T21:36:46.144Z,102444.20
2022-08-23T21:39:14.077Z,102448.00
2022-08-23T21:41:45.885Z,102443.20
2022-08-23T21:44:19.938Z,102441.20
2022-08-23T21:46:49.145Z,102439.20
2022-08-23T21:49:20.927Z,102447.00
2022-08-23T21:51:50.336Z,102447.40
2022-08-23T21:54:18.484Z,102450.20
2022-08-23T21:56:47.019Z,102450.20
2022-08-23T21:59:17.781Z,102447.40
2022-08-23T22:01:46.898Z,102451.40
2022-08-23T22:04:16.134Z,102452.00
2022-08-23T22:06:46.944Z,102454.00
2022-08-23T22:09:20.168Z,102443.80
2022-08-23T22:11:55.496Z,102447.20
2022-08-23T22:14:30.446Z,102444.80
2022-08-23T22:17:00.559Z,102446.20
2022-08-23T22:19:29.051Z,102450.80
2022-08-23T22:21:57.548Z,102446.40
2022-08-23T22:24:26.410Z,102446.20
2022-08-23T22:26:55.827Z,102448.40
2022-08-23T22:29:24.679Z,102443.20
2022-08-23T22:31:53.007Z,102441.20
2022-08-23T22:34:21.275Z,102438.80
2022-08-23T22:36:52.118Z,102432.40
2022-08-23T22:39:22.722Z,102427.80
2022-08-23T22:41:50.633Z,102430.40
2022-08-23T22:44:18.741Z,102428.00
2022-08-23T22:46:47.339Z,102431.00
2022-08-23T22:49:15.569Z,102431.00
2022-08-23T22:51:43.583Z,102433.00
2022-08-23T22:54:12.572Z,102435.60
2022-08-23T22:56:50.964Z,102434.00
2022-08-23T22:59:27.530Z,102433.80
2022-08-23T23:01:57.943Z,102435.00
2022-08-23T23:04:27.453Z,102433.20
2022-08-23T23:06:56.145Z,102432.80
2022-08-23T23:09:25.115Z,102430.00
2022-08-23T23:11:54.470Z,102430.40
2022-08-23T23:14:22.757Z,102433.60
2022-08-23T23:16:51.119Z,102431.00
2022-08-23T23:19:39.147Z,102423.60
2022-08-23T23:22:09.084Z,102418.40
2022-08-23T23:24:39.791Z,102411.40
2022-08-23T23:27:08.512Z,102416.40
2022-08-23T23:29:36.849Z,102428.80
2022-08-23T23:32:05.677Z,102430.80
2022-08-23T23:34:33.512Z,102428.00
2022-08-23T23:37:01.580Z,102428.20
2022-08-23T23:39:30.120Z,102433.20
2022-08-23T23:41:58.603Z,102439.00
2022-08-23T23:44:31.457Z,102437.60
2022-08-23T23:47:02.081Z,102434.00
2022-08-23T23:49:32.362Z,102433.80
2022-08-23T23:52:07.294Z,102429.40
2022-08-23T23:54:36.416Z,102427.60
2022-08-23T23:57:07.030Z,102423.20
2022-08-23T23:59:35.920Z,102423.00
